METAR AND TAF INFORMATION
METAR FOR LFSB
ADDS - METARS form results

(1946 UTC 26 April 2018)
Data provider http://aviationweather.gov/adds/metars/
 
METAR text: LFSB 261930Z 28005KT CAVOK 12/01 Q1019 NOSIG
Conditions at: LFSB (BALE/MULHOUSE , FR) observed 1930 UTC 26 April 2018
Temperature: 12.0°C (54°F)
Dewpoint: 1.0°C (34°F) [RH = 47%]
Pressure (altimeter): 30.09 inches Hg (1019.0 mb)
Winds: from the W (280 degrees) at 6 MPH (5 knots; 2.6 m/s)
Visibility: 6 or more miles (10+ km)
Ceiling: ceiling and visibility are OK
Clouds: unknown
Weather: no significant weather observed at this time

METAR text: LFSB 261900Z 27004KT CAVOK 13/01 Q1019 NOSIG
Conditions at: LFSB (BALE/MULHOUSE , FR) observed 1900 UTC 26 April 2018
Temperature: 13.0°C (55°F)
Dewpoint: 1.0°C (34°F) [RH = 44%]
Pressure (altimeter): 30.09 inches Hg (1019.0 mb)
Winds: from the W (270 degrees) at 5 MPH (4 knots; 2.1 m/s)
Visibility: 6 or more miles (10+ km)
Ceiling: ceiling and visibility are OK
Clouds: unknown
Weather: no significant weather observed at this time

Forecast for: LFSB (BALE/MULHOUSE , FR)
Text: TAF LFSB 261700Z 2618/2718 28006KT CAVOK
Forecast period: 1800 UTC 26 April 2018 to 0800 UTC 27 April 2018
Forecast type: FROM: standard forecast or significant change
Winds: from the W (280 degrees) at 7 MPH (6 knots; 3.1 m/s)
Visibility: 6 or more miles (10+ km)
Clouds: not forecast
Weather: NSW  (no significant weather)
Forecast for: LFSB (BALE/MULHOUSE , FR)
Text: TAF LFSB 261700Z 2618/2718 28006KT CAVOK
Forecast period: 1800 UTC 26 April 2018 to 0800 UTC 27 April 2018
Forecast type: FROM: standard forecast or significant change
Winds: from the W (280 degrees) at 7 MPH (6 knots; 3.1 m/s)
Visibility: 6 or more miles (10+ km)
Clouds: not forecast
Weather: NSW  (no significant weather)
Forecast for: LFSB (BALE/MULHOUSE , FR)
Text: TAF LFSB 261700Z 2618/2718 28006KT CAVOK
Forecast period: 0800 to 1400 UTC 27 April 2018
Forecast type: BECOMING: Conditions expected to become as follows by 1000 UTC 27 April 2018
Winds: from the E (100 degrees) at 12 MPH (10 knots; 5.2 m/s)
Visibility: 6 or more miles (10+ km)
Weather: NSW  (no significant weather)
Forecast for: LFSB (BALE/MULHOUSE , FR)
Text: TAF LFSB 261700Z 2618/2718 28006KT CAVOK
Forecast period: 0800 to 1400 UTC 27 April 2018
Forecast type: BECOMING: Conditions expected to become as follows by 1000 UTC 27 April 2018
Winds: from the E (100 degrees) at 12 MPH (10 knots; 5.2 m/s)
Visibility: 6 or more miles (10+ km)
Weather: NSW  (no significant weather)
Forecast for: LFSB (BALE/MULHOUSE , FR)
Text: TAF LFSB 261700Z 2618/2718 28006KT CAVOK
Forecast period: 1400 to 1800 UTC 27 April 2018
Forecast type: BECOMING: Conditions expected to become as follows by 1600 UTC 27 April 2018
Winds: from the W (270 degrees) at 9 MPH (8 knots; 4.2 m/s)
Visibility: 6 or more miles (10+ km)
Weather: NSW  (no significant weather)
Forecast for: LFSB (BALE/MULHOUSE , FR)
Text: TAF LFSB 261700Z 2618/2718 28006KT CAVOK
Forecast period: 1400 to 1800 UTC 27 April 2018
Forecast type: BECOMING: Conditions expected to become as follows by 1600 UTC 27 April 2018
Winds: from the W (270 degrees) at 9 MPH (8 knots; 4.2 m/s)
Visibility: 6 or more miles (10+ km)
Weather: NSW  (no significant weather)

 AIRPORT MAP

 RUNWAY INFORMATION
Runway 08 Runway length 5969 ft Runway width 197 ft
Runway elevation 881 ft Runway displaced threshold 0 ft Runway heading 77
Runway 26 Runway length 5969 ft Runway width 197 ft
Runway elevation 884 ft Runway displaced threshold 722 ft Runway heading 257
Runway 15 Runway length 12795 ft Runway width 197 ft
Runway elevation 865 ft Runway displaced threshold 0 ft Runway heading 155
Runway 33 Runway length 12795 ft Runway width 197 ft
Runway elevation 882 ft Runway displaced threshold 0 ft Runway heading 335

 AIRPORT FREQUENCIES
Type A/D Name APP Frequency 118.575 MHZ
Type ATIS Name ATIS Frequency 127.875 MHZ
Type GND Name GND Frequency 121.6 MHZ
Type INFO Name INFO Frequency 121.25 MHZ
Type PFLT Name PREFLIGHT Frequency 120.5 MHZ
Type TWR Name TWR Frequency 118.3 MHZ

 AIRPORT NEAR NAVIGATION AIDS
Type VOR-DME Name Bale Mulhouse Frequency 117450 KHZ
Type NDB Name Bale Mulhouse Frequency 353 KHZ



v2.6.1